Home > Products > Valid Products > TAF

000
FTUS44 KEWX 291900 AAA
TAFAUS
TAF AMD
KAUS 291900Z 2919/3024 14010KT P6SM SCT040 BKN250
     FM300500 16005KT P6SM OVC015 PROB30 3006/3012 5SM -TSRA
      BKN012CB
     FM301800 16008KT P6SM BKN030=



000
FTUS44 KEWX 291346 AAA
TAFAUS
TAF AMD
KAUS 291346Z 2914/3018 19015G25KT P6SM FEW040 BKN070 BKN120
     FM291500 14008KT P6SM BKN025
     FM291900 14010KT P6SM BKN040
     FM300500 16007KT P6SM VCSH OVC018
     FM300900 17005KT 5SM BR OVC007=



000
FTUS44 KEWX 291254 CCA
TAFSAT
TAF COR
KSAT 291254Z 2913/3018 09011G21KT P6SM VCSH FEW015 SCT080 OVC110
     FM291500 13009KT P6SM SCT015 BKN020
     FM291800 14012KT P6SM BKN040
     FM300400 13010KT P6SM OVC018
     FM300800 15008KT 5SM BR OVC007=



000
FTUS44 KEWX 290832 AAA
TAFSAT
TAF AMD
KSAT 290832Z 2909/3012 11012KT P6SM -TSRA BKN015CB OVC040
      TEMPO 2909/2911 VRB20KT 2SM +TSRA
     FM291200 13005KT 4SM BR SCT007 BKN015
     FM291500 13009KT P6SM OVC012
     FM291800 14012KT P6SM BKN040
     FM300400 13010KT P6SM OVC018
     FM300800 15008KT 5SM BR OVC007=



000
FTUS44 KEWX 290601 AAA
TAFAUS
TAF AMD
KAUS 290601Z 2906/3012 VRB03KT P6SM VCTS FEW008 SCT030CB OVC120
     FM290800 VRB03KT P6SM SCT030 BKN120
     FM291000 14003KT 4SM BR OVC007
     FM291500 14008KT P6SM OVC012
     FM291900 14010KT P6SM BKN040
     FM300500 16007KT P6SM OVC018
     FM300900 17005KT 5SM BR OVC007=



000
FTUS44 KEWX 290444 AAB
TAFSAT
TAF AMD
KSAT 290444Z 2905/3006 12013KT P6SM VCTS BKN015CB OVC100
      TEMPO 2905/2908 3SM TSRA
     FM290800 13007KT P6SM OVC007
     FM291200 13005KT 5SM BR OVC004
     FM291500 13009KT P6SM OVC012
     FM291800 14012KT P6SM BKN040
     FM300400 13010KT P6SM OVC018=



000
FTUS44 KEWX 282325
TAFSAT
TAF
KSAT 282325Z 2900/3006 13010KT P6SM VCSH SCT040
     FM290400 13008KT P6SM OVC015
     FM290700 13007KT P6SM OVC007
     FM291200 13005KT 5SM BR OVC004
     FM291500 13009KT P6SM OVC012
     FM291800 14012KT P6SM BKN040
     FM300400 13010KT P6SM OVC018=



000
FTUS44 KEWX 282325
TAFDRT
TAF
KDRT 282325Z 2900/2924 12012G22KT P6SM VCTS SCT050CB BKN250
     FM290200 11012KT P6SM SCT050 SCT250
     FM290800 11012KT P6SM BKN010
     FM291200 12008KT 6SM BR OVC004
     FM291500 12010KT P6SM BKN012
     FM291700 14015KT P6SM SCT050=



000
FTUS44 KEWX 282325
TAFAUS
TAF
KAUS 282325Z 2900/3006 16010KT P6SM SCT035
     FM290500 14007KT P6SM FEW030 SCT250
     FM290800 14004KT 6SM BR OVC007
     FM291100 14003KT 2SM BR OVC003
     FM291500 14008KT P6SM OVC012
     FM291900 14010KT P6SM BKN040
     FM300500 16007KT P6SM OVC018=



000
FTUS44 KEWX 281733
TAFAUS
TAF
KAUS 281733Z 2818/2924 17009KT P6SM BKN025
     FM281900 16009KT P6SM BKN035
     FM290300 13007KT P6SM OVC015
     FM290800 14004KT 6SM BR OVC007
     FM291100 14003KT 2SM BR OVC003
     FM291500 14008KT P6SM OVC012
     FM291900 14010KT P6SM BKN040=



000
FTUS44 KEWX 281733
TAFDRT
TAF
KDRT 281733Z 2818/2918 15011KT P6SM BKN040
     FM290000 11012KT P6SM SCT050 SCT250
     FM290700 11012KT P6SM BKN015
     FM291000 11010KT P6SM OVC009
     FM291200 12008KT 6SM BR OVC004
     FM291500 12010KT P6SM BKN012=



000
FTUS44 KEWX 281733
TAFSAT
TAF
KSAT 281733Z 2818/2924 16011KT P6SM SCT025 BKN035
     FM282000 13011KT P6SM BKN040
     FM290300 12010KT P6SM OVC015
     FM290800 13007KT P6SM OVC007
     FM291200 13005KT 5SM BR OVC004
     FM291500 13009KT P6SM OVC012
     FM291800 14012KT P6SM BKN040=



000
FTUS44 KEWX 281334 AAA
TAFAUS
TAF AMD
KAUS 281334Z 2814/2918 VRB02KT 3SM BR OVC008
     FM281500 20007KT P6SM OVC015
     FM281700 17008KT P6SM BKN040
     FM290300 13005KT P6SM OVC015
     FM290800 16006KT 5SM BR OVC007
     FM290900 14004KT 2SM BR OVC003=



000
FTUS44 KEWX 281332 AAA
TAFSAT
TAF AMD
KSAT 281332Z 2814/2918 09003KT P6SM OVC008
     FM281500 09006KT P6SM OVC012
     FM281600 17007KT P6SM OVC025
     FM281900 16010KT P6SM BKN040
     FM290300 13010KT P6SM OVC015
     FM290800 13007KT 5SM BR OVC007=



000
FTUS44 KEWX 281331 AAA
TAFDRT
TAF AMD
KDRT 281331Z 2814/2912 08004KT 2SM BR OVC004
     FM281500 09004KT 4SM BR OVC006
     FM281700 11012KT P6SM BKN050
     FM282200 13013KT P6SM VCTS SCT050CB BKN150
     FM290500 11012KT P6SM OVC050=



000
FTUS44 KEWX 281140 CCA
TAFDRT
TAF COR
KDRT 281140Z 2812/2912 08004KT P6SM OVC009
     FM281700 11012KT P6SM BKN050
     FM282200 13013KT P6SM VCTS SCT050CB BKN150
     FM290500 11012KT P6SM OVC050=



000
FTUS44 KEWX 280609 AAA
TAFAUS
TAF AMD
KAUS 280609Z 2806/2912 VRB04KT 1/4SM FG OVC001
      TEMPO 2809/2813 3SM BR OVC002
     FM281500 20007KT 6SM HZ OVC015
     FM281700 17008KT P6SM BKN040
     FM290300 13005KT P6SM OVC015
     FM290800 16006KT 5SM BR OVC007=



000
FTUS44 KEWX 280535
TAFAUS
TAF
KAUS 280535Z 2806/2912 VRB04KT P6SM OVC005
      TEMPO 2809/2813 3SM BR OVC002
     FM281500 20007KT 6SM HZ OVC015
     FM281700 17008KT P6SM BKN040
     FM290300 13005KT P6SM OVC015
     FM290800 16006KT 5SM BR OVC007=



000
FTUS44 KEWX 280535
TAFSAT
TAF
KSAT 280535Z 2806/2912 13005KT P6SM SKC
     FM280630 12005KT P6SM OVC008
     FM281500 16010KT P6SM OVC015
     FM281900 16010KT P6SM BKN040
     FM290300 13010KT P6SM OVC015
     FM290800 13007KT 5SM BR OVC007=



000
FTUS44 KEWX 280535
TAFDRT
TAF
KDRT 280535Z 2806/2906 12005KT P6SM SKC
     FM280900 09007KT P6SM OVC015
     FM281700 13012KT P6SM SCT060=



000
FTUS44 KEWX 272330
TAFSAT
TAF
KSAT 272330Z 2800/2906 04012KT P6SM FEW060
     FM280200 09010KT P6SM FEW050
     FM280500 13005KT P6SM OVC015
     FM280900 16005KT P6SM OVC007
     FM281500 16010KT P6SM OVC015
     FM281900 16010KT P6SM BKN040
     FM290300 13010KT P6SM OVC015=



000
FTUS44 KEWX 272330
TAFDRT
TAF
KDRT 272330Z 2800/2824 35010KT P6SM SKC
     FM280500 08007KT P6SM SKC
     FM281500 13012KT P6SM SCT060=



000
FTUS44 KEWX 272330
TAFAUS
TAF
KAUS 272330Z 2800/2906 06010KT P6SM SCT025 BKN120
     FM280100 15005KT P6SM SCT040
     FM280500 16005KT P6SM BKN015
      TEMPO 2812/2815 1SM BR OVC003
     FM281700 17008KT P6SM BKN040
     FM290300 13005KT P6SM OVC015=



000
FTUS44 KEWX 272115 AAC
TAFAUS
TAF AMD
KAUS 272115Z 2721/2824 04012KT P6SM OVC012
     FM272200 07011KT P6SM OVC025
     FM272300 12010KT P6SM SCT025 BKN040
     FM280100 15008KT P6SM SCT040 OVC250
     FM280500 16007KT P6SM BKN015
      TEMPO 2812/2815 2SM BR OVC003
     FM281700 17008KT P6SM BKN040=



000
FTUS44 KEWX 271447 AAB
TAFSAT
TAF AMD
KSAT 271447Z 2715/2818 14013KT P6SM SCT015 BKN035
     FM280500 13006KT P6SM OVC015
     FM281000 15005KT P6SM OVC007=



000
FTUS44 KEWX 271211 AAA
TAFAUS
TAF AMD
KAUS 271211Z 2712/2818 13009KT P6SM BKN007
     FM271500 18011KT P6SM OVC015
     FM271700 19015KT P6SM OVC025
     FM272000 15014KT P6SM VCTS SCT025CB BKN040
     FM280100 15008KT P6SM SCT040 OVC250
     FM280500 16007KT P6SM BKN015=



000
FTUS44 KEWX 271122
TAFAUS
TAF
KAUS 271122Z 2712/2818 14009KT P6SM OVC025
     FM271330 18011KT P6SM OVC015
     FM271700 19015KT P6SM OVC025
     FM272000 15014KT P6SM VCTS SCT025CB BKN040
     FM280100 15008KT P6SM SCT040 OVC250
     FM280500 16007KT P6SM BKN015=



000
FTUS44 KEWX 271122
TAFSAT
TAF
KSAT 271122Z 2712/2818 12010KT P6SM BKN015 OVC020
     FM271700 15014KT P6SM BKN025 BKN040
     FM271900 22009G15KT P6SM BKN040 BKN100
     FM280500 13006KT P6SM OVC015
     FM281000 15005KT P6SM OVC007=



000
FTUS44 KEWX 271122
TAFDRT
TAF
KDRT 271122Z 2712/2812 VRB04KT P6SM SCT020
     FM271400 31010KT P6SM SCT025
     FM271900 32013KT P6SM SKC
     FM280200 08007KT P6SM SKC=



000
FTUS44 KEWX 271024 AAB
TAFDRT
TAF AMD
KDRT 271024Z 2710/2806 10006KT P6SM SCT020
     FM271400 31010KT P6SM SCT025
     FM271900 32013KT P6SM SKC
     FM280200 08007KT P6SM SKC=



000
FTUS44 KEWX 270704 AAA
TAFAUS
TAF AMD
KAUS 270704Z 2707/2812 12012G22KT 6SM -TSRA SCT020 OVC035CB
      TEMPO 2707/2708 4SM -TSRA BKN025CB
     FM270800 15015KT P6SM VCSH OVC015
     FM271000 17012KT P6SM OVC007
     FM271500 18011KT P6SM OVC015
     FM272000 15014KT P6SM BKN025 BKN040 PROB30 2721/2802 VRB25G35KT
      3SM TSRA OVC020CB=



000
FTUS44 KEWX 270546
TAFDRT
TAF
KDRT 270546Z 2706/2806 08010KT P6SM FEW040 BKN100
     FM270700 12009KT P6SM OVC020
     FM271400 31010KT P6SM SCT025=



000
FTUS44 KEWX 270546
TAFAUS
TAF
KAUS 270546Z 2706/2812 12012G22KT 2SM TSRA SCT010 OVC020CB
      TEMPO 2706/2708 VRB25G35KT 1/2SM +TSRA BKN008 OVC015CB
     FM270800 15015KT P6SM VCTS OVC015CB
     FM271000 17012KT P6SM OVC007
     FM271500 18011KT P6SM OVC015
     FM272000 15014KT P6SM BKN025 BKN040 PROB30 2721/2802 VRB25G35KT
      3SM TSRA OVC020CB=



000
FTUS44 KEWX 270423 AAA
TAFDRT
TAF AMD
KDRT 270423Z 2704/2724 08010KT P6SM FEW040 BKN100
     FM270700 12009KT P6SM OVC020
     FM271400 31010KT P6SM SCT025=



000
FTUS44 KEWX 270321 AAB
TAFAUS
TAF AMD
KAUS 270321Z 2703/2806 10011KT P6SM VCTS SCT020CB BKN030 BKN200
      TEMPO 2703/2706 VRB25G35KT 1/2SM +TSRA BKN008 OVC015CB
     FM270600 15015KT P6SM VCTS OVC015CB
     FM271000 17012KT P6SM OVC007
     FM271500 18011KT P6SM OVC015
     FM272000 15014KT P6SM BKN025 BKN040 PROB30 2721/2802 VRB25G35KT
      3SM TSRA OVC020CB=



000
FTUS44 KEWX 270304 AAA
TAFSAT
TAF AMD
KSAT 270304Z 2703/2806 15015KT P6SM BKN015
     FM270700 16009KT P6SM VCTS OVC015CB
     FM271000 15012KT P6SM OVC007
     FM271500 17013KT P6SM OVC015
     FM272000 15014KT P6SM BKN025 BKN040 PROB30 2722/2802 VRB25G35KT
      3SM TSRA OVC020CB=



    US Dept of Commerce
    National Oceanic and Atmospheric Administration
    National Weather Service
    1325 East West Highway
    Silver Spring, MD 20910
    Page Author: NWS Internet Services Team
Disclaimer
Information Quality
Credits
Glossary
Privacy Policy
Freedom of Information Act (FOIA)
About Us
Career Opportunities